MST,Max TemperatureF,Mean TemperatureF,Min TemperatureF,Max Dew PointF,MeanDew PointF,Min DewpointF,Max Humidity, Mean Humidity, Min Humidity, Max Sea Level PressureIn, Mean Sea Level PressureIn, Min Sea Level PressureIn, Max VisibilityMiles, Mean VisibilityMiles, Min VisibilityMiles, Max Wind SpeedMPH, Mean Wind SpeedMPH, Max Gust SpeedMPH,PrecipitationIn, CloudCover, Events, WindDirDegrees
2011-12-1,30,16,2,27,20,3,100,88,75,30.56,30.38,29.99,10,6,2,29,19,36,0.01,7,Snow,354
2011-12-2,41,28,14,26,19,12,100,73,45,30.41,30.07,29.84,20,10,9,26,12,32,0.00,1,,187
2011-12-3,26,15,3,22,17,3,96,86,75,30.22,30.04,29.89,10,5,0,29,19,36,0.11,7,Fog-Snow,352
2011-12-4,27,13,-1,15,9,-1,95,73,50,30.47,30.28,30.11,10,10,4,26,8,32,T,5,Snow,351
2011-12-5,10,-2,-15,4,-2,-18,92,83,73,30.59,30.44,30.24,10,9,4,26,13,31,T,5,Snow,347
2011-12-6,27,5,-18,8,-5,-22,86,58,29,30.49,30.34,30.22,10,10,10,14,3,16,0.00,0,,337
2011-12-7,42,24,5,21,13,2,88,63,38,30.38,30.22,30.12,10,10,10,13,5,25,0.00,0,,276
2011-12-8,33,20,6,21,13,3,100,80,59,30.27,30.17,30.09,10,9,0,17,4,20,0.00,2,Fog,332
2011-12-9,37,20,3,22,11,1,100,69,37,30.48,30.35,30.12,10,8,0,9,2,12,0.00,0,Fog,350
2011-12-10,45,26,7,19,14,6,92,62,31,30.48,30.35,30.16,10,10,10,10,4,13,0.00,0,,342
2011-12-11,47,28,8,21,14,5,92,63,33,30.13,30.03,29.90,10,10,10,10,3,14,0.00,0,,336
2011-12-12,43,26,8,23,16,6,92,64,36,30.20,30.10,29.98,10,10,10,16,4,18,0.00,0,,134
2011-12-13,39,28,17,29,23,17,100,85,70,30.07,29.98,29.85,10,5,0,14,6,20,0.00,3,Fog,153
2011-12-14,47,32,17,25,21,17,100,69,38,30.16,29.93,29.77,10,9,5,17,7,20,0.00,2,,311
2011-12-15,40,25,9,24,16,7,96,70,44,30.34,30.26,30.15,10,10,10,16,6,22,0.00,0,,189
2011-12-16,41,23,5,20,12,4,92,63,34,30.50,30.42,30.28,10,10,9,23,7,30,0.00,0,,341
2011-12-17,51,29,7,21,13,4,92,58,24,30.56,30.41,30.20,10,10,10,13,5,15,0.00,0,,69
2011-12-18,63,38,13,20,12,3,84,46,8,30.17,30.00,29.81,10,10,10,12,3,15,0.00,0,,325
2011-12-19,35,28,20,25,20,17,100,76,51,30.27,30.11,29.79,10,4,0,31,19,39,0.11,7,Fog-Rain-Snow,347
2011-12-20,35,21,7,25,17,5,100,85,69,30.25,30.02,29.87,10,9,2,14,8,17,0.01,4,Snow,298
2011-12-21,40,24,7,30,22,4,100,75,50,30.01,29.91,29.82,10,6,1,18,9,22,0.05,5,Snow,5
2011-12-22,26,10,-7,25,14,-9,100,89,77,30.54,30.27,29.98,10,5,0,28,13,32,0.10,7,Fog-Snow,9
2011-12-23,31,12,-8,13,1,-9,95,71,46,30.58,30.51,30.45,10,10,10,14,6,16,0.00,0,,337
2011-12-24,33,18,3,17,7,0,84,67,49,30.59,30.54,30.44,10,10,10,14,6,15,0.00,0,,312
2011-12-25,37,23,9,23,13,7,92,69,46,30.69,30.51,30.27,10,10,10,15,8,20,0.00,0,,255
2011-12-26,42,27,11,23,15,8,84,64,43,30.32,30.14,29.98,10,10,10,20,9,26,0.00,0,,327
2011-12-27,40,23,5,23,14,2,96,67,37,30.33,30.17,30.06,10,10,10,17,7,21,0.00,0,,326
2011-12-28,51,33,15,28,18,9,88,60,31,30.15,30.08,29.95,10,10,10,15,5,17,0.00,0,,325
2011-12-29,58,40,22,31,26,20,96,66,35,29.98,29.87,29.68,10,10,10,22,7,28,0.00,0,,334
2011-12-30,52,36,19,31,25,16,81,60,39,30.05,29.89,29.72,10,10,10,16,7,22,0.00,0,,297
2011-12-31,50,34,18,27,18,9,85,56,27,30.43,29.93,29.53,10,10,10,54,17,74,0.00,1,,303